sensor_id;sensor_type;location;lat;lon;timestamp;pressure;altitude;pressure_sealevel;temperature
65765;BMP180;52915;53.718;19.946;2022-12-10T00:02:45;99638.60;;;1.02
65765;BMP180;52915;53.718;19.946;2022-12-10T00:07:50;99641.00;;;0.94
65765;BMP180;52915;53.718;19.946;2022-12-10T00:12:54;99637.80;;;0.80
65765;BMP180;52915;53.718;19.946;2022-12-10T00:17:58;99640.80;;;0.78
65765;BMP180;52915;53.718;19.946;2022-12-10T00:23:02;99641.60;;;0.90
65765;BMP180;52915;53.718;19.946;2022-12-10T00:28:06;99647.20;;;0.90
65765;BMP180;52915;53.718;19.946;2022-12-10T00:33:10;99646.20;;;0.70
65765;BMP180;52915;53.718;19.946;2022-12-10T00:38:14;99646.40;;;0.70
65765;BMP180;52915;53.718;19.946;2022-12-10T00:43:18;99646.20;;;0.90
65765;BMP180;52915;53.718;19.946;2022-12-10T00:48:22;99650.80;;;0.90
65765;BMP180;52915;53.718;19.946;2022-12-10T00:53:28;99648.60;;;0.76
65765;BMP180;52915;53.718;19.946;2022-12-10T00:58:34;99651.20;;;0.70
65765;BMP180;52915;53.718;19.946;2022-12-10T01:03:40;99664.60;;;0.80
65765;BMP180;52915;53.718;19.946;2022-12-10T01:08:45;99664.00;;;0.70
65765;BMP180;52915;53.718;19.946;2022-12-10T01:13:49;99668.20;;;0.60
65765;BMP180;52915;53.718;19.946;2022-12-10T01:18:57;99668.00;;;0.60
65765;BMP180;52915;53.718;19.946;2022-12-10T01:24:02;99666.80;;;0.70
65765;BMP180;52915;53.718;19.946;2022-12-10T01:29:11;99663.40;;;0.70
65765;BMP180;52915;53.718;19.946;2022-12-10T01:34:14;99664.00;;;0.60
65765;BMP180;52915;53.718;19.946;2022-12-10T01:39:20;99659.80;;;0.50
65765;BMP180;52915;53.718;19.946;2022-12-10T01:49:36;99655.60;;;0.80
65765;BMP180;52915;53.718;19.946;2022-12-10T01:54:46;99654.00;;;0.80
65765;BMP180;52915;53.718;19.946;2022-12-10T01:59:56;99649.00;;;0.60
65765;BMP180;52915;53.718;19.946;2022-12-10T02:16:17;99635.20;;;0.80
65765;BMP180;52915;53.718;19.946;2022-12-10T02:21:40;99634.80;;;0.80
65765;BMP180;52915;53.718;19.946;2022-12-10T02:26:58;99630.00;;;0.70
65765;BMP180;52915;53.718;19.946;2022-12-10T02:32:36;99624.80;;;0.80
65765;BMP180;52915;53.718;19.946;2022-12-10T02:37:49;99612.20;;;0.82
65765;BMP180;52915;53.718;19.946;2022-12-10T02:42:55;99608.00;;;0.70
65765;BMP180;52915;53.718;19.946;2022-12-10T02:48:02;99620.20;;;0.50
65765;BMP180;52915;53.718;19.946;2022-12-10T02:53:07;99623.40;;;0.60
65765;BMP180;52915;53.718;19.946;2022-12-10T02:58:30;99624.00;;;0.70
65765;BMP180;52915;53.718;19.946;2022-12-10T03:03:55;99629.00;;;0.60
65765;BMP180;52915;53.718;19.946;2022-12-10T03:09:35;99615.60;;;0.50
65765;BMP180;52915;53.718;19.946;2022-12-10T03:14:43;99624.80;;;0.50
65765;BMP180;52915;53.718;19.946;2022-12-10T03:19:51;99624.00;;;0.60
65765;BMP180;52915;53.718;19.946;2022-12-10T03:24:58;99620.00;;;0.68
65765;BMP180;52915;53.718;19.946;2022-12-10T03:30:03;99623.20;;;0.60
65765;BMP180;52915;53.718;19.946;2022-12-10T03:35:08;99620.00;;;0.50
65765;BMP180;52915;53.718;19.946;2022-12-10T03:40:13;99617.00;;;0.40
65765;BMP180;52915;53.718;19.946;2022-12-10T03:45:17;99618.20;;;0.40
65765;BMP180;52915;53.718;19.946;2022-12-10T03:50:21;99620.80;;;0.50
65765;BMP180;52915;53.718;19.946;2022-12-10T03:55:25;99623.80;;;0.62
65765;BMP180;52915;53.718;19.946;2022-12-10T04:00:29;99626.60;;;0.60
65765;BMP180;52915;53.718;19.946;2022-12-10T04:05:32;99626.00;;;0.40
65765;BMP180;52915;53.718;19.946;2022-12-10T04:10:37;99626.40;;;0.30
65765;BMP180;52915;53.718;19.946;2022-12-10T04:15:41;99624.80;;;0.40
65765;BMP180;52915;53.718;19.946;2022-12-10T04:21:04;99625.80;;;0.60
65765;BMP180;52915;53.718;19.946;2022-12-10T04:26:27;99627.60;;;0.56
65765;BMP180;52915;53.718;19.946;2022-12-10T04:31:50;99630.80;;;0.40
65765;BMP180;52915;53.718;19.946;2022-12-10T04:36:57;99629.40;;;0.40
65765;BMP180;52915;53.718;19.946;2022-12-10T04:42:01;99632.00;;;0.50
65765;BMP180;52915;53.718;19.946;2022-12-10T04:47:08;99631.20;;;0.50
65765;BMP180;52915;53.718;19.946;2022-12-10T04:52:15;99631.00;;;0.40
65765;BMP180;52915;53.718;19.946;2022-12-10T04:57:19;99635.60;;;0.20
65765;BMP180;52915;53.718;19.946;2022-12-10T05:02:23;99625.20;;;0.10
65765;BMP180;52915;53.718;19.946;2022-12-10T05:07:29;99626.00;;;0.30
65765;BMP180;52915;53.718;19.946;2022-12-10T05:12:33;99628.80;;;0.40
65765;BMP180;52915;53.718;19.946;2022-12-10T05:17:37;99633.40;;;0.50
65765;BMP180;52915;53.718;19.946;2022-12-10T05:22:40;99634.00;;;0.30
65765;BMP180;52915;53.718;19.946;2022-12-10T05:28:03;99644.00;;;0.28
65765;BMP180;52915;53.718;19.946;2022-12-10T05:33:07;99646.40;;;0.40
65765;BMP180;52915;53.718;19.946;2022-12-10T05:38:11;99649.40;;;0.50
65765;BMP180;52915;53.718;19.946;2022-12-10T05:43:15;99655.20;;;0.50
65765;BMP180;52915;53.718;19.946;2022-12-10T05:48:19;99652.40;;;0.30
65765;BMP180;52915;53.718;19.946;2022-12-10T05:53:23;99651.00;;;0.20
65765;BMP180;52915;53.718;19.946;2022-12-10T05:58:28;99647.40;;;0.30
65765;BMP180;52915;53.718;19.946;2022-12-10T06:03:32;99648.20;;;0.40
65765;BMP180;52915;53.718;19.946;2022-12-10T06:08:37;99652.60;;;0.40
65765;BMP180;52915;53.718;19.946;2022-12-10T06:13:41;99654.00;;;0.30
65765;BMP180;52915;53.718;19.946;2022-12-10T06:18:45;99654.80;;;0.10
65765;BMP180;52915;53.718;19.946;2022-12-10T06:23:50;99658.00;;;0.00
65765;BMP180;52915;53.718;19.946;2022-12-10T06:28:56;99662.80;;;0.00
65765;BMP180;52915;53.718;19.946;2022-12-10T06:34:00;99664.00;;;0.20
65765;BMP180;52915;53.718;19.946;2022-12-10T06:39:05;99667.60;;;0.30
65765;BMP180;52915;53.718;19.946;2022-12-10T06:44:08;99663.20;;;0.42
65765;BMP180;52915;53.718;19.946;2022-12-10T06:49:12;99667.80;;;0.40
65765;BMP180;52915;53.718;19.946;2022-12-10T06:54:16;99661.00;;;0.30
65765;BMP180;52915;53.718;19.946;2022-12-10T06:59:20;99668.40;;;0.20
65765;BMP180;52915;53.718;19.946;2022-12-10T07:04:24;99673.40;;;0.28
65765;BMP180;52915;53.718;19.946;2022-12-10T07:09:28;99678.60;;;0.32
65765;BMP180;52915;53.718;19.946;2022-12-10T07:14:32;99677.00;;;0.40
65765;BMP180;52915;53.718;19.946;2022-12-10T07:19:36;99676.60;;;0.40
65765;BMP180;52915;53.718;19.946;2022-12-10T07:24:40;99682.00;;;0.30
65765;BMP180;52915;53.718;19.946;2022-12-10T07:29:44;99679.20;;;0.20
65765;BMP180;52915;53.718;19.946;2022-12-10T07:34:48;99678.00;;;0.10
65765;BMP180;52915;53.718;19.946;2022-12-10T07:39:52;99672.60;;;0.20
65765;BMP180;52915;53.718;19.946;2022-12-10T07:44:57;99676.00;;;0.30
65765;BMP180;52915;53.718;19.946;2022-12-10T07:50:06;99673.60;;;0.40
65765;BMP180;52915;53.718;19.946;2022-12-10T07:55:15;99675.40;;;0.50
65765;BMP180;52915;53.718;19.946;2022-12-10T08:00:20;99682.60;;;0.30
65765;BMP180;52915;53.718;19.946;2022-12-10T08:05:24;99681.20;;;0.20
65765;BMP180;52915;53.718;19.946;2022-12-10T08:10:29;99676.00;;;0.20
65765;BMP180;52915;53.718;19.946;2022-12-10T08:15:33;99680.80;;;0.30
65765;BMP180;52915;53.718;19.946;2022-12-10T08:20:37;99686.40;;;0.40
65765;BMP180;52915;53.718;19.946;2022-12-10T08:25:42;99688.40;;;0.50
65765;BMP180;52915;53.718;19.946;2022-12-10T08:30:47;99693.40;;;0.60
65765;BMP180;52915;53.718;19.946;2022-12-10T08:35:51;99697.20;;;0.70
65765;BMP180;52915;53.718;19.946;2022-12-10T08:40:55;99698.20;;;0.60
65765;BMP180;52915;53.718;19.946;2022-12-10T08:45:59;99701.40;;;0.50
65765;BMP180;52915;53.718;19.946;2022-12-10T08:51:05;99700.00;;;0.50
65765;BMP180;52915;53.718;19.946;2022-12-10T08:56:10;99698.00;;;0.70
65765;BMP180;52915;53.718;19.946;2022-12-10T09:01:16;99691.00;;;0.82
65765;BMP180;52915;53.718;19.946;2022-12-10T09:06:23;99687.40;;;0.90
65765;BMP180;52915;53.718;19.946;2022-12-10T09:11:33;99688.00;;;0.74
65765;BMP180;52915;53.718;19.946;2022-12-10T09:16:37;99692.20;;;0.78
65765;BMP180;52915;53.718;19.946;2022-12-10T09:21:43;99689.00;;;0.90
65765;BMP180;52915;53.718;19.946;2022-12-10T09:26:46;99685.40;;;0.90
65765;BMP180;52915;53.718;19.946;2022-12-10T09:31:52;99685.60;;;0.80
65765;BMP180;52915;53.718;19.946;2022-12-10T09:36:58;99684.60;;;0.70
65765;BMP180;52915;53.718;19.946;2022-12-10T09:53:02;99667.80;;;1.28
65765;BMP180;52915;53.718;19.946;2022-12-10T09:58:21;99673.60;;;1.30
65765;BMP180;52915;53.718;19.946;2022-12-10T10:03:39;99673.20;;;1.20
65765;BMP180;52915;53.718;19.946;2022-12-10T10:08:52;99672.00;;;1.20
65765;BMP180;52915;53.718;19.946;2022-12-10T10:14:17;99669.80;;;1.40
65765;BMP180;52915;53.718;19.946;2022-12-10T10:19:34;99666.80;;;1.60
65765;BMP180;52915;53.718;19.946;2022-12-10T10:24:46;99668.40;;;1.50
65765;BMP180;52915;53.718;19.946;2022-12-10T10:29:53;99668.00;;;1.40
65765;BMP180;52915;53.718;19.946;2022-12-10T10:35:00;99666.20;;;1.30
65765;BMP180;52915;53.718;19.946;2022-12-10T10:40:05;99668.20;;;1.50
65765;BMP180;52915;53.718;19.946;2022-12-10T10:45:33;99665.20;;;1.60
65765;BMP180;52915;53.718;19.946;2022-12-10T10:51:18;99667.80;;;1.66
65765;BMP180;52915;53.718;19.946;2022-12-10T10:56:40;99663.00;;;1.56
65765;BMP180;52915;53.718;19.946;2022-12-10T11:01:50;99668.40;;;1.50
65765;BMP180;52915;53.718;19.946;2022-12-10T11:06:59;99669.00;;;1.60
65765;BMP180;52915;53.718;19.946;2022-12-10T11:12:33;99668.20;;;1.80
65765;BMP180;52915;53.718;19.946;2022-12-10T11:17:48;99672.80;;;1.84
65765;BMP180;52915;53.718;19.946;2022-12-10T11:22:58;99668.00;;;1.70
65765;BMP180;52915;53.718;19.946;2022-12-10T11:34:07;99671.80;;;1.60
65765;BMP180;52915;53.718;19.946;2022-12-10T11:39:37;99667.80;;;1.70
65765;BMP180;52915;53.718;19.946;2022-12-10T11:50:42;99672.00;;;1.90
65765;BMP180;52915;53.718;19.946;2022-12-10T11:56:20;99666.00;;;1.90
65765;BMP180;52915;53.718;19.946;2022-12-10T12:01:52;99663.00;;;1.76
65765;BMP180;52915;53.718;19.946;2022-12-10T12:13:04;99663.40;;;1.60
65765;BMP180;52915;53.718;19.946;2022-12-10T12:29:51;99652.60;;;1.74
65765;BMP180;52915;53.718;19.946;2022-12-10T12:46:42;99643.20;;;1.80
65765;BMP180;52915;53.718;19.946;2022-12-10T12:58:11;99653.80;;;1.60
65765;BMP180;52915;53.718;19.946;2022-12-10T13:03:39;99655.60;;;1.60
65765;BMP180;52915;53.718;19.946;2022-12-10T13:19:35;99663.80;;;1.40
65765;BMP180;52915;53.718;19.946;2022-12-10T13:35:28;99682.40;;;1.40
65765;BMP180;52915;53.718;19.946;2022-12-10T13:40:41;99687.00;;;1.30
65765;BMP180;52915;53.718;19.946;2022-12-10T13:46:33;99688.60;;;1.10
65765;BMP180;52915;53.718;19.946;2022-12-10T13:57:49;99698.20;;;0.90
65765;BMP180;52915;53.718;19.946;2022-12-10T14:08:35;99702.00;;;1.04
65765;BMP180;52915;53.718;19.946;2022-12-10T14:13:47;99700.20;;;0.96
65765;BMP180;52915;53.718;19.946;2022-12-10T14:19:03;99693.80;;;0.98
65765;BMP180;52915;53.718;19.946;2022-12-10T14:24:33;99692.00;;;1.00
65765;BMP180;52915;53.718;19.946;2022-12-10T14:29:42;99690.80;;;0.90
65765;BMP180;52915;53.718;19.946;2022-12-10T14:34:54;99693.80;;;0.74
65765;BMP180;52915;53.718;19.946;2022-12-10T14:40:00;99695.20;;;0.60
65765;BMP180;52915;53.718;19.946;2022-12-10T14:45:06;99693.60;;;0.70
65765;BMP180;52915;53.718;19.946;2022-12-10T14:50:15;99693.80;;;0.80
65765;BMP180;52915;53.718;19.946;2022-12-10T14:55:23;99686.60;;;0.80
65765;BMP180;52915;53.718;19.946;2022-12-10T15:00:27;99686.20;;;0.80
65765;BMP180;52915;53.718;19.946;2022-12-10T15:05:33;99692.20;;;0.70
65765;BMP180;52915;53.718;19.946;2022-12-10T15:10:45;99704.00;;;0.60
65765;BMP180;52915;53.718;19.946;2022-12-10T15:15:52;99706.20;;;0.68
65765;BMP180;52915;53.718;19.946;2022-12-10T15:21:20;99704.80;;;0.70
65765;BMP180;52915;53.718;19.946;2022-12-10T15:26:32;99710.60;;;0.70
65765;BMP180;52915;53.718;19.946;2022-12-10T15:31:36;99712.80;;;0.70
65765;BMP180;52915;53.718;19.946;2022-12-10T15:36:50;99718.80;;;0.60
65765;BMP180;52915;53.718;19.946;2022-12-10T15:42:08;99721.20;;;0.48
65765;BMP180;52915;53.718;19.946;2022-12-10T15:47:26;99713.00;;;0.38
65765;BMP180;52915;53.718;19.946;2022-12-10T15:52:32;99709.20;;;0.40
65765;BMP180;52915;53.718;19.946;2022-12-10T15:57:38;99708.20;;;0.50
65765;BMP180;52915;53.718;19.946;2022-12-10T16:03:02;99704.20;;;0.58
65765;BMP180;52915;53.718;19.946;2022-12-10T16:08:24;99713.80;;;0.50
65765;BMP180;52915;53.718;19.946;2022-12-10T16:13:34;99718.40;;;0.50
65765;BMP180;52915;53.718;19.946;2022-12-10T16:18:40;99720.60;;;0.50
65765;BMP180;52915;53.718;19.946;2022-12-10T16:23:45;99711.40;;;0.40
65765;BMP180;52915;53.718;19.946;2022-12-10T16:28:52;99711.20;;;0.28
65765;BMP180;52915;53.718;19.946;2022-12-10T16:33:56;99704.20;;;0.20
65765;BMP180;52915;53.718;19.946;2022-12-10T16:39:01;99701.80;;;0.10
65765;BMP180;52915;53.718;19.946;2022-12-10T16:44:06;99707.40;;;0.08
65765;BMP180;52915;53.718;19.946;2022-12-10T16:49:10;99704.80;;;0.00
65765;BMP180;52915;53.718;19.946;2022-12-10T16:54:14;99702.40;;;-0.04
65765;BMP180;52915;53.718;19.946;2022-12-10T16:59:17;99700.80;;;-0.16
65765;BMP180;52915;53.718;19.946;2022-12-10T17:04:21;99698.40;;;-0.10
65765;BMP180;52915;53.718;19.946;2022-12-10T17:09:25;99703.00;;;0.02
65765;BMP180;52915;53.718;19.946;2022-12-10T17:14:37;99700.40;;;0.14
65765;BMP180;52915;53.718;19.946;2022-12-10T17:19:42;99704.60;;;0.00
65765;BMP180;52915;53.718;19.946;2022-12-10T17:24:47;99712.60;;;0.00
65765;BMP180;52915;53.718;19.946;2022-12-10T17:29:52;99720.00;;;0.10
65765;BMP180;52915;53.718;19.946;2022-12-10T17:35:00;99721.60;;;0.10
65765;BMP180;52915;53.718;19.946;2022-12-10T17:40:17;99729.20;;;-0.10
65765;BMP180;52915;53.718;19.946;2022-12-10T17:45:21;99729.60;;;-0.30
65765;BMP180;52915;53.718;19.946;2022-12-10T17:50:33;99727.40;;;-0.10
65765;BMP180;52915;53.718;19.946;2022-12-10T17:55:37;99736.80;;;0.06
65765;BMP180;52915;53.718;19.946;2022-12-10T18:00:48;99727.20;;;-0.12
65765;BMP180;52915;53.718;19.946;2022-12-10T18:05:52;99737.00;;;-0.36
65765;BMP180;52915;53.718;19.946;2022-12-10T18:10:58;99748.60;;;-0.42
65765;BMP180;52915;53.718;19.946;2022-12-10T18:16:03;99750.40;;;-0.30
65765;BMP180;52915;53.718;19.946;2022-12-10T18:21:16;99743.00;;;-0.22
65765;BMP180;52915;53.718;19.946;2022-12-10T18:26:24;99748.00;;;-0.30
65765;BMP180;52915;53.718;19.946;2022-12-10T18:31:34;99742.80;;;-0.40
65765;BMP180;52915;53.718;19.946;2022-12-10T18:36:44;99738.40;;;-0.40
65765;BMP180;52915;53.718;19.946;2022-12-10T18:41:48;99729.60;;;-0.50
65765;BMP180;52915;53.718;19.946;2022-12-10T18:46:56;99729.40;;;-0.40
65765;BMP180;52915;53.718;19.946;2022-12-10T18:52:00;99733.20;;;-0.20
65765;BMP180;52915;53.718;19.946;2022-12-10T18:57:04;99739.00;;;0.00
65765;BMP180;52915;53.718;19.946;2022-12-10T19:02:28;99741.40;;;-0.10
65765;BMP180;52915;53.718;19.946;2022-12-10T19:07:33;99745.60;;;-0.20
65765;BMP180;52915;53.718;19.946;2022-12-10T19:12:39;99743.40;;;-0.38
65765;BMP180;52915;53.718;19.946;2022-12-10T19:17:43;99737.60;;;-0.26
65765;BMP180;52915;53.718;19.946;2022-12-10T19:22:48;99745.40;;;-0.10
65765;BMP180;52915;53.718;19.946;2022-12-10T19:27:53;99748.60;;;-0.10
65765;BMP180;52915;53.718;19.946;2022-12-10T19:32:57;99751.80;;;-0.20
65765;BMP180;52915;53.718;19.946;2022-12-10T19:38:01;99752.60;;;-0.40
65765;BMP180;52915;53.718;19.946;2022-12-10T19:43:06;99745.20;;;-0.20
65765;BMP180;52915;53.718;19.946;2022-12-10T19:48:16;99746.60;;;-0.10
65765;BMP180;52915;53.718;19.946;2022-12-10T19:53:20;99746.20;;;-0.20
65765;BMP180;52915;53.718;19.946;2022-12-10T19:58:25;99746.60;;;-0.30
65765;BMP180;52915;53.718;19.946;2022-12-10T20:03:29;99749.60;;;-0.40
65765;BMP180;52915;53.718;19.946;2022-12-10T20:08:33;99749.60;;;-0.40
65765;BMP180;52915;53.718;19.946;2022-12-10T20:13:40;99751.00;;;-0.18
65765;BMP180;52915;53.718;19.946;2022-12-10T20:18:47;99748.40;;;-0.10
65765;BMP180;52915;53.718;19.946;2022-12-10T20:23:51;99737.80;;;-0.30
65765;BMP180;52915;53.718;19.946;2022-12-10T20:29:01;99734.80;;;-0.40
65765;BMP180;52915;53.718;19.946;2022-12-10T20:34:06;99732.60;;;-0.40
65765;BMP180;52915;53.718;19.946;2022-12-10T20:44:24;99729.80;;;-0.10
65765;BMP180;52915;53.718;19.946;2022-12-10T20:49:28;99715.80;;;-0.10
65765;BMP180;52915;53.718;19.946;2022-12-10T20:54:32;99724.80;;;-0.20
65765;BMP180;52915;53.718;19.946;2022-12-10T20:59:36;99723.20;;;-0.30
65765;BMP180;52915;53.718;19.946;2022-12-10T21:04:40;99722.20;;;-0.20
65765;BMP180;52915;53.718;19.946;2022-12-10T21:09:44;99722.40;;;-0.20
65765;BMP180;52915;53.718;19.946;2022-12-10T21:14:48;99714.60;;;-0.40
65765;BMP180;52915;53.718;19.946;2022-12-10T21:19:57;99713.20;;;-0.60
65765;BMP180;52915;53.718;19.946;2022-12-10T21:25:01;99702.60;;;-0.60
65765;BMP180;52915;53.718;19.946;2022-12-10T21:30:06;99699.80;;;-0.58
65765;BMP180;52915;53.718;19.946;2022-12-10T21:35:11;99698.20;;;-0.58
65765;BMP180;52915;53.718;19.946;2022-12-10T21:40:16;99701.40;;;-0.60
65765;BMP180;52915;53.718;19.946;2022-12-10T21:45:20;99708.00;;;-0.80
65765;BMP180;52915;53.718;19.946;2022-12-10T21:50:28;99707.00;;;-0.80
65765;BMP180;52915;53.718;19.946;2022-12-10T21:55:36;99707.20;;;-0.80
65765;BMP180;52915;53.718;19.946;2022-12-10T22:00:42;99697.40;;;-0.80
65765;BMP180;52915;53.718;19.946;2022-12-10T22:05:46;99706.40;;;-0.80
65765;BMP180;52915;53.718;19.946;2022-12-10T22:10:50;99700.80;;;-0.60
65765;BMP180;52915;53.718;19.946;2022-12-10T22:15:54;99703.00;;;-0.60
65765;BMP180;52915;53.718;19.946;2022-12-10T22:20:59;99699.60;;;-0.72
65765;BMP180;52915;53.718;19.946;2022-12-10T22:26:08;99700.20;;;-0.88
65765;BMP180;52915;53.718;19.946;2022-12-10T22:31:12;99695.40;;;-1.00
65765;BMP180;52915;53.718;19.946;2022-12-10T22:36:16;99699.80;;;-0.90
65765;BMP180;52915;53.718;19.946;2022-12-10T22:41:20;99695.60;;;-0.80
65765;BMP180;52915;53.718;19.946;2022-12-10T22:46:24;99690.00;;;-0.98
65765;BMP180;52915;53.718;19.946;2022-12-10T22:51:27;99682.40;;;-1.10
65765;BMP180;52915;53.718;19.946;2022-12-10T22:56:32;99687.80;;;-1.20
65765;BMP180;52915;53.718;19.946;2022-12-10T23:01:36;99695.00;;;-1.08
65765;BMP180;52915;53.718;19.946;2022-12-10T23:06:40;99692.20;;;-1.20
65765;BMP180;52915;53.718;19.946;2022-12-10T23:11:44;99694.40;;;-1.38
65765;BMP180;52915;53.718;19.946;2022-12-10T23:17:08;99704.00;;;-1.40
65765;BMP180;52915;53.718;19.946;2022-12-10T23:22:12;99701.20;;;-1.20
65765;BMP180;52915;53.718;19.946;2022-12-10T23:27:15;99701.20;;;-1.20
65765;BMP180;52915;53.718;19.946;2022-12-10T23:32:19;99691.40;;;-1.42
65765;BMP180;52915;53.718;19.946;2022-12-10T23:37:23;99697.80;;;-1.60
65765;BMP180;52915;53.718;19.946;2022-12-10T23:42:29;99690.80;;;-1.60
65765;BMP180;52915;53.718;19.946;2022-12-10T23:47:33;99691.20;;;-1.40
65765;BMP180;52915;53.718;19.946;2022-12-10T23:52:37;99684.60;;;-1.50
65765;BMP180;52915;53.718;19.946;2022-12-10T23:57:41;99674.00;;;-1.70
